Silver Shadow — C6FN6 — position and weather

sailwx.info

Track history (hours):
 
Tides and Currents Weather Stations Pressure Air Temp Water Temp Dewpoint Dewpoint Depression Visibility Wind Speed Wind Dir Waves Ship Positions

Silver Shadow

Operator: V Ships Leisure SAM

Last reported at 2017-Jun-22 16:30 UTC. Time now 2017-Jun-22 16:38 UTC.
Position N 49°17' W 123°07'.

Length 186 m; draft 6.1 m.

Type: Ship. MMSI: 308628000.

Date/timePositionNaut miles runAvg speedWind from/ knotsBaromVisibWave heightAir tempDewpointWater temp
2017-Jun-22 16:30N 49°17' W 123°07'0 0.0
2017-Jun-22 16:00N 49°17' W 123°07'0 0.0
2017-Jun-22 15:30N 49°17' W 123°07'0 0.0
2017-Jun-22 15:00N 49°17' W 123°07'0 0.0
2017-Jun-22 14:01N 49°17' W 123°07'2 3.6
2017-Jun-22 13:30N 49°19' W 123°08'713.4
2017-Jun-22 13:00N 49°18' W 123°18'714.2
2017-Jun-22 12:30N 49°18' W 123°29'714.1
2017-Jun-22 12:00N 49°19' W 123°40'714.1
2017-Jun-22 11:30N 49°20' W 123°51'714.4
2017-Jun-22 11:00N 49°22' W 124°01'714.1
2017-Jun-22 10:30N 49°24' W 124°12'714.1
2017-Jun-22 10:00N 49°26' W 124°22'714.1
2017-Jun-22 09:30N 49°30' W 124°30'713.9
2017-Jun-22 09:00N 49°36' W 124°37'713.4
2017-Jun-22 08:30N 49°42' W 124°43'713.8
2017-Jun-22 08:00N 49°47' W 124°48'713.9
2017-Jun-22 07:30N 49°50' W 124°58'713.6
2017-Jun-22 07:00N 49°55' W 125°06'713.3
2017-Jun-22 06:31N 49°60' W 125°12'713.8
2017-Jun-22 06:00N 50°06' W 125°18'612.3
2017-Jun-22 05:31N 50°11' W 125°22'612.7
2017-Jun-22 05:00N 50°18' W 125°25'1012.9
2017-Jun-22 04:14N 50°22' W 125°39'314.8
2017-Jun-22 04:00N 50°22' W 125°44'914.6
2017-Jun-22 03:23N 50°25' W 125°58'9514.5
2017-Jun-21 20:47N 51°09' W 128°11'414.7
2017-Jun-21 20:29N 51°12' W 128°17'715.0
2017-Jun-21 20:01N 51°16' W 128°26'714.9
2017-Jun-21 19:31N 51°21' W 128°35'714.9
2017-Jun-21 19:00N 51°25' W 128°45'714.9
2017-Jun-21 18:31N 51°29' W 128°55'914.8
2017-Jun-21 17:53N 51°35' W 129°07'614.9
2017-Jun-21 17:30N 51°38' W 129°15'815.1
2017-Jun-21 17:00N 51°42' W 129°25'  
2017-Jun-18 09:11N 58°19' W 135°52'314.6
2017-Jun-18 08:58N 58°19' W 135°57'  
2017-Jun-13 08:05N 58°19' W 136°09'116.7
2017-Jun-13 08:00N 58°19' W 136°07'815.5
2017-Jun-13 07:29N 58°19' W 135°52'  
Track history (hours):
 
Tides and Currents Weather Stations Pressure Air Temp Water Temp Dewpoint Dewpoint Depression Visibility Wind Speed Wind Dir Waves Ship Positions

Silver Shadow

Operator: V Ships Leisure SAM

Last reported at 2017-Jun-22 16:30 UTC. Time now 2017-Jun-22 16:38 UTC.
Position N 49°17' W 123°07'.

Length 186 m; draft 6.1 m.

Type: Ship. MMSI: 308628000.

Date/timePositionNaut miles runAvg speedWind from/ knotsBaromVisibWave heightAir tempDewpointWater temp
2017-Jun-22 16:30N 49°17' W 123°07'0 0.0
2017-Jun-22 16:00N 49°17' W 123°07'0 0.0
2017-Jun-22 15:30N 49°17' W 123°07'0 0.0
2017-Jun-22 15:00N 49°17' W 123°07'0 0.0
2017-Jun-22 14:01N 49°17' W 123°07'2 3.6
2017-Jun-22 13:30N 49°19' W 123°08'713.4
2017-Jun-22 13:00N 49°18' W 123°18'714.2
2017-Jun-22 12:30N 49°18' W 123°29'714.1
2017-Jun-22 12:00N 49°19' W 123°40'714.1
2017-Jun-22 11:30N 49°20' W 123°51'714.4
2017-Jun-22 11:00N 49°22' W 124°01'714.1
2017-Jun-22 10:30N 49°24' W 124°12'714.1
2017-Jun-22 10:00N 49°26' W 124°22'714.1
2017-Jun-22 09:30N 49°30' W 124°30'713.9
2017-Jun-22 09:00N 49°36' W 124°37'713.4
2017-Jun-22 08:30N 49°42' W 124°43'713.8
2017-Jun-22 08:00N 49°47' W 124°48'713.9
2017-Jun-22 07:30N 49°50' W 124°58'713.6
2017-Jun-22 07:00N 49°55' W 125°06'713.3
2017-Jun-22 06:31N 49°60' W 125°12'713.8
2017-Jun-22 06:00N 50°06' W 125°18'612.3
2017-Jun-22 05:31N 50°11' W 125°22'612.7
2017-Jun-22 05:00N 50°18' W 125°25'1012.9
2017-Jun-22 04:14N 50°22' W 125°39'314.8
2017-Jun-22 04:00N 50°22' W 125°44'914.6
2017-Jun-22 03:23N 50°25' W 125°58'9514.5
2017-Jun-21 20:47N 51°09' W 128°11'414.7
2017-Jun-21 20:29N 51°12' W 128°17'715.0
2017-Jun-21 20:01N 51°16' W 128°26'714.9
2017-Jun-21 19:31N 51°21' W 128°35'714.9
2017-Jun-21 19:00N 51°25' W 128°45'714.9
2017-Jun-21 18:31N 51°29' W 128°55'914.8
2017-Jun-21 17:53N 51°35' W 129°07'614.9
2017-Jun-21 17:30N 51°38' W 129°15'815.1
2017-Jun-21 17:00N 51°42' W 129°25'  
2017-Jun-18 09:11N 58°19' W 135°52'314.6
2017-Jun-18 08:58N 58°19' W 135°57'  
2017-Jun-13 08:05N 58°19' W 136°09'116.7
2017-Jun-13 08:00N 58°19' W 136°07'815.5
2017-Jun-13 07:29N 58°19' W 135°52'  

Dump ship's entire track history